sensor_id;sensor_type;location;lat;lon;timestamp;temperature;humidity
15872;DHT22;8035;51.962;7.162;2023-08-06T00:00:09;14.40;99.90
15872;DHT22;8035;51.962;7.162;2023-08-06T00:02:35;14.40;99.90
15872;DHT22;8035;51.962;7.162;2023-08-06T00:05:01;14.40;99.90
15872;DHT22;8035;51.962;7.162;2023-08-06T00:07:27;14.40;99.90
15872;DHT22;8035;51.962;7.162;2023-08-06T00:09:52;14.40;99.90
15872;DHT22;8035;51.962;7.162;2023-08-06T00:12:18;14.40;99.90
15872;DHT22;8035;51.962;7.162;2023-08-06T00:14:44;14.40;99.90
15872;DHT22;8035;51.962;7.162;2023-08-06T00:17:10;14.50;99.90
15872;DHT22;8035;51.962;7.162;2023-08-06T00:19:36;14.50;99.90
15872;DHT22;8035;51.962;7.162;2023-08-06T00:22:01;14.60;99.90
15872;DHT22;8035;51.962;7.162;2023-08-06T00:24:28;14.60;99.90
15872;DHT22;8035;51.962;7.162;2023-08-06T00:26:53;14.60;99.90
15872;DHT22;8035;51.962;7.162;2023-08-06T00:29:19;14.60;99.90
15872;DHT22;8035;51.962;7.162;2023-08-06T00:31:45;14.60;99.90
15872;DHT22;8035;51.962;7.162;2023-08-06T00:34:11;14.60;99.90
15872;DHT22;8035;51.962;7.162;2023-08-06T00:36:36;14.60;99.90
15872;DHT22;8035;51.962;7.162;2023-08-06T00:39:02;14.60;99.90
15872;DHT22;8035;51.962;7.162;2023-08-06T00:41:28;14.60;99.90
15872;DHT22;8035;51.962;7.162;2023-08-06T00:43:54;14.60;99.90
15872;DHT22;8035;51.962;7.162;2023-08-06T00:46:19;14.60;99.90
15872;DHT22;8035;51.962;7.162;2023-08-06T00:48:45;14.60;99.90
15872;DHT22;8035;51.962;7.162;2023-08-06T00:51:11;14.60;99.90
15872;DHT22;8035;51.962;7.162;2023-08-06T00:53:38;14.60;99.90
15872;DHT22;8035;51.962;7.162;2023-08-06T00:56:04;14.60;99.90
15872;DHT22;8035;51.962;7.162;2023-08-06T00:58:30;14.70;99.90
15872;DHT22;8035;51.962;7.162;2023-08-06T01:00:56;14.70;99.90
15872;DHT22;8035;51.962;7.162;2023-08-06T01:03:21;14.70;99.90
15872;DHT22;8035;51.962;7.162;2023-08-06T01:05:47;14.70;99.90
15872;DHT22;8035;51.962;7.162;2023-08-06T01:13:42;14.70;99.90
15872;DHT22;8035;51.962;7.162;2023-08-06T01:16:10;14.70;99.90
15872;DHT22;8035;51.962;7.162;2023-08-06T01:18:36;14.80;99.90
15872;DHT22;8035;51.962;7.162;2023-08-06T01:21:04;14.70;99.90
15872;DHT22;8035;51.962;7.162;2023-08-06T01:23:30;14.70;99.90
15872;DHT22;8035;51.962;7.162;2023-08-06T01:31:35;14.70;99.90
15872;DHT22;8035;51.962;7.162;2023-08-06T01:34:05;14.80;99.90
15872;DHT22;8035;51.962;7.162;2023-08-06T01:36:31;14.80;99.90
15872;DHT22;8035;51.962;7.162;2023-08-06T01:38:57;14.80;99.90
15872;DHT22;8035;51.962;7.162;2023-08-06T01:41:23;14.80;99.90
15872;DHT22;8035;51.962;7.162;2023-08-06T01:43:49;14.80;99.90
15872;DHT22;8035;51.962;7.162;2023-08-06T01:46:14;14.80;99.90
15872;DHT22;8035;51.962;7.162;2023-08-06T01:48:40;14.70;99.90
15872;DHT22;8035;51.962;7.162;2023-08-06T01:51:06;14.70;99.90
15872;DHT22;8035;51.962;7.162;2023-08-06T01:53:32;14.70;99.90
15872;DHT22;8035;51.962;7.162;2023-08-06T01:55:58;14.70;99.90
15872;DHT22;8035;51.962;7.162;2023-08-06T01:58:23;14.70;99.90
15872;DHT22;8035;51.962;7.162;2023-08-06T02:00:49;14.60;99.90
15872;DHT22;8035;51.962;7.162;2023-08-06T02:03:15;14.60;99.90
15872;DHT22;8035;51.962;7.162;2023-08-06T02:05:40;14.50;99.90
15872;DHT22;8035;51.962;7.162;2023-08-06T02:08:06;14.50;99.90
15872;DHT22;8035;51.962;7.162;2023-08-06T02:10:32;14.50;99.90
15872;DHT22;8035;51.962;7.162;2023-08-06T02:12:57;14.50;99.90
15872;DHT22;8035;51.962;7.162;2023-08-06T02:15:23;14.50;99.90
15872;DHT22;8035;51.962;7.162;2023-08-06T02:17:49;14.50;99.90
15872;DHT22;8035;51.962;7.162;2023-08-06T02:20:14;14.50;99.90
15872;DHT22;8035;51.962;7.162;2023-08-06T02:22:40;14.50;99.90
15872;DHT22;8035;51.962;7.162;2023-08-06T02:25:05;14.50;99.90
15872;DHT22;8035;51.962;7.162;2023-08-06T02:27:31;14.50;99.90
15872;DHT22;8035;51.962;7.162;2023-08-06T02:29:56;14.50;99.90
15872;DHT22;8035;51.962;7.162;2023-08-06T02:32:22;14.50;99.90
15872;DHT22;8035;51.962;7.162;2023-08-06T02:34:47;14.50;99.90
15872;DHT22;8035;51.962;7.162;2023-08-06T02:37:13;14.40;99.90
15872;DHT22;8035;51.962;7.162;2023-08-06T02:39:39;14.40;99.90
15872;DHT22;8035;51.962;7.162;2023-08-06T02:42:08;14.40;99.90
15872;DHT22;8035;51.962;7.162;2023-08-06T02:44:35;14.40;99.90
15872;DHT22;8035;51.962;7.162;2023-08-06T02:47:01;14.40;99.90
15872;DHT22;8035;51.962;7.162;2023-08-06T02:49:27;14.40;99.90
15872;DHT22;8035;51.962;7.162;2023-08-06T02:51:52;14.40;99.90
15872;DHT22;8035;51.962;7.162;2023-08-06T02:54:18;14.40;99.90
15872;DHT22;8035;51.962;7.162;2023-08-06T02:56:45;14.40;99.90
15872;DHT22;8035;51.962;7.162;2023-08-06T02:59:11;14.40;99.90
15872;DHT22;8035;51.962;7.162;2023-08-06T03:01:37;14.40;99.90
15872;DHT22;8035;51.962;7.162;2023-08-06T03:04:03;14.40;99.90
15872;DHT22;8035;51.962;7.162;2023-08-06T03:06:28;14.40;99.90
15872;DHT22;8035;51.962;7.162;2023-08-06T03:08:54;14.40;99.90
15872;DHT22;8035;51.962;7.162;2023-08-06T03:11:20;14.40;99.90
15872;DHT22;8035;51.962;7.162;2023-08-06T03:13:49;14.40;99.90
15872;DHT22;8035;51.962;7.162;2023-08-06T03:16:15;14.40;99.90
15872;DHT22;8035;51.962;7.162;2023-08-06T03:18:40;14.50;99.90
15872;DHT22;8035;51.962;7.162;2023-08-06T03:21:06;14.50;99.90
15872;DHT22;8035;51.962;7.162;2023-08-06T03:23:32;14.50;99.90
15872;DHT22;8035;51.962;7.162;2023-08-06T03:26:04;14.50;99.90
15872;DHT22;8035;51.962;7.162;2023-08-06T03:28:29;14.50;99.90
15872;DHT22;8035;51.962;7.162;2023-08-06T03:30:59;14.50;99.90
15872;DHT22;8035;51.962;7.162;2023-08-06T03:33:25;14.50;99.90
15872;DHT22;8035;51.962;7.162;2023-08-06T03:35:51;14.50;99.90
15872;DHT22;8035;51.962;7.162;2023-08-06T03:38:16;14.50;99.90
15872;DHT22;8035;51.962;7.162;2023-08-06T03:40:42;14.50;99.90
15872;DHT22;8035;51.962;7.162;2023-08-06T03:43:08;14.50;99.90
15872;DHT22;8035;51.962;7.162;2023-08-06T03:45:34;14.50;99.90
15872;DHT22;8035;51.962;7.162;2023-08-06T03:47:59;14.50;99.90
15872;DHT22;8035;51.962;7.162;2023-08-06T03:50:25;14.50;99.90
15872;DHT22;8035;51.962;7.162;2023-08-06T03:52:50;14.50;99.90
15872;DHT22;8035;51.962;7.162;2023-08-06T03:55:16;14.50;99.90
15872;DHT22;8035;51.962;7.162;2023-08-06T03:57:41;14.50;99.90
15872;DHT22;8035;51.962;7.162;2023-08-06T04:00:07;14.50;99.90
15872;DHT22;8035;51.962;7.162;2023-08-06T04:02:33;14.50;99.90
15872;DHT22;8035;51.962;7.162;2023-08-06T04:04:59;14.50;99.90
15872;DHT22;8035;51.962;7.162;2023-08-06T04:07:24;14.50;99.90
15872;DHT22;8035;51.962;7.162;2023-08-06T04:09:57;14.40;99.90
15872;DHT22;8035;51.962;7.162;2023-08-06T04:12:23;14.40;99.90
15872;DHT22;8035;51.962;7.162;2023-08-06T04:14:50;14.40;99.90
15872;DHT22;8035;51.962;7.162;2023-08-06T04:17:16;14.40;99.90
15872;DHT22;8035;51.962;7.162;2023-08-06T04:19:46;14.40;99.90
15872;DHT22;8035;51.962;7.162;2023-08-06T04:22:11;14.40;99.90
15872;DHT22;8035;51.962;7.162;2023-08-06T04:24:37;14.40;99.90
15872;DHT22;8035;51.962;7.162;2023-08-06T04:27:02;14.40;99.90
15872;DHT22;8035;51.962;7.162;2023-08-06T04:29:28;14.50;99.90
15872;DHT22;8035;51.962;7.162;2023-08-06T04:31:54;14.50;99.90
15872;DHT22;8035;51.962;7.162;2023-08-06T04:34:19;14.50;99.90
15872;DHT22;8035;51.962;7.162;2023-08-06T04:36:45;14.50;99.90
15872;DHT22;8035;51.962;7.162;2023-08-06T04:39:10;14.60;99.90
15872;DHT22;8035;51.962;7.162;2023-08-06T04:41:36;14.60;99.90
15872;DHT22;8035;51.962;7.162;2023-08-06T04:44:01;14.60;99.90
15872;DHT22;8035;51.962;7.162;2023-08-06T04:46:28;14.60;99.90
15872;DHT22;8035;51.962;7.162;2023-08-06T04:48:54;14.60;99.90
15872;DHT22;8035;51.962;7.162;2023-08-06T04:51:19;14.60;99.90
15872;DHT22;8035;51.962;7.162;2023-08-06T04:53:45;14.60;99.90
15872;DHT22;8035;51.962;7.162;2023-08-06T04:56:10;14.60;99.90
15872;DHT22;8035;51.962;7.162;2023-08-06T04:58:36;14.60;99.90
15872;DHT22;8035;51.962;7.162;2023-08-06T05:01:01;14.60;99.90
15872;DHT22;8035;51.962;7.162;2023-08-06T05:03:27;14.70;99.90
15872;DHT22;8035;51.962;7.162;2023-08-06T05:05:52;14.70;99.90
15872;DHT22;8035;51.962;7.162;2023-08-06T05:08:18;14.70;99.90
15872;DHT22;8035;51.962;7.162;2023-08-06T05:10:45;14.70;99.90
15872;DHT22;8035;51.962;7.162;2023-08-06T05:13:10;14.80;99.90
15872;DHT22;8035;51.962;7.162;2023-08-06T05:15:36;14.80;99.90
15872;DHT22;8035;51.962;7.162;2023-08-06T05:18:02;14.90;99.90
15872;DHT22;8035;51.962;7.162;2023-08-06T05:20:27;14.90;99.90
15872;DHT22;8035;51.962;7.162;2023-08-06T05:22:53;14.90;99.90
15872;DHT22;8035;51.962;7.162;2023-08-06T05:25:18;14.90;99.90
15872;DHT22;8035;51.962;7.162;2023-08-06T05:27:44;14.90;99.90
15872;DHT22;8035;51.962;7.162;2023-08-06T05:30:10;14.90;99.90
15872;DHT22;8035;51.962;7.162;2023-08-06T05:32:36;15.00;99.90
15872;DHT22;8035;51.962;7.162;2023-08-06T05:35:01;15.00;99.90
15872;DHT22;8035;51.962;7.162;2023-08-06T05:37:28;15.10;99.90
15872;DHT22;8035;51.962;7.162;2023-08-06T05:39:53;15.10;99.90
15872;DHT22;8035;51.962;7.162;2023-08-06T05:42:19;15.20;99.90
15872;DHT22;8035;51.962;7.162;2023-08-06T05:44:44;15.20;99.90
15872;DHT22;8035;51.962;7.162;2023-08-06T05:47:10;15.30;99.90
15872;DHT22;8035;51.962;7.162;2023-08-06T05:49:36;15.40;99.90
15872;DHT22;8035;51.962;7.162;2023-08-06T05:52:01;15.50;99.90
15872;DHT22;8035;51.962;7.162;2023-08-06T05:54:28;15.50;99.90
15872;DHT22;8035;51.962;7.162;2023-08-06T05:56:53;15.70;99.90
15872;DHT22;8035;51.962;7.162;2023-08-06T05:59:19;15.90;99.90
15872;DHT22;8035;51.962;7.162;2023-08-06T06:01:44;16.20;99.90
15872;DHT22;8035;51.962;7.162;2023-08-06T06:04:10;16.50;99.90
15872;DHT22;8035;51.962;7.162;2023-08-06T06:06:35;16.80;99.90
15872;DHT22;8035;51.962;7.162;2023-08-06T06:09:01;17.10;99.90
15872;DHT22;8035;51.962;7.162;2023-08-06T06:11:26;17.30;99.90
15872;DHT22;8035;51.962;7.162;2023-08-06T06:13:52;17.30;99.90
15872;DHT22;8035;51.962;7.162;2023-08-06T06:16:18;17.10;99.90
15872;DHT22;8035;51.962;7.162;2023-08-06T06:18:43;17.00;99.90
15872;DHT22;8035;51.962;7.162;2023-08-06T06:21:10;16.90;99.90
15872;DHT22;8035;51.962;7.162;2023-08-06T06:23:35;16.80;99.90
15872;DHT22;8035;51.962;7.162;2023-08-06T06:26:01;16.70;99.90
15872;DHT22;8035;51.962;7.162;2023-08-06T06:28:26;16.60;99.90
15872;DHT22;8035;51.962;7.162;2023-08-06T06:30:52;16.50;99.90
15872;DHT22;8035;51.962;7.162;2023-08-06T06:33:17;16.60;99.90
15872;DHT22;8035;51.962;7.162;2023-08-06T06:35:43;16.60;99.90
15872;DHT22;8035;51.962;7.162;2023-08-06T06:38:09;16.60;99.90
15872;DHT22;8035;51.962;7.162;2023-08-06T06:40:34;16.60;99.90
15872;DHT22;8035;51.962;7.162;2023-08-06T06:43:00;16.60;99.90
15872;DHT22;8035;51.962;7.162;2023-08-06T06:45:25;16.70;99.90
15872;DHT22;8035;51.962;7.162;2023-08-06T06:47:51;16.80;99.90
15872;DHT22;8035;51.962;7.162;2023-08-06T06:50:17;16.80;99.90
15872;DHT22;8035;51.962;7.162;2023-08-06T06:52:42;16.80;99.90
15872;DHT22;8035;51.962;7.162;2023-08-06T06:55:08;16.90;99.90
15872;DHT22;8035;51.962;7.162;2023-08-06T06:57:34;16.90;99.90
15872;DHT22;8035;51.962;7.162;2023-08-06T07:00:00;16.90;99.90
15872;DHT22;8035;51.962;7.162;2023-08-06T07:02:25;16.90;99.90
15872;DHT22;8035;51.962;7.162;2023-08-06T07:04:51;16.90;99.90
15872;DHT22;8035;51.962;7.162;2023-08-06T07:07:16;17.00;99.90
15872;DHT22;8035;51.962;7.162;2023-08-06T07:09:42;17.00;99.90
15872;DHT22;8035;51.962;7.162;2023-08-06T07:12:07;17.10;99.90
15872;DHT22;8035;51.962;7.162;2023-08-06T07:14:33;17.10;99.90
15872;DHT22;8035;51.962;7.162;2023-08-06T07:16:59;17.20;99.90
15872;DHT22;8035;51.962;7.162;2023-08-06T07:19:24;17.20;99.90
15872;DHT22;8035;51.962;7.162;2023-08-06T07:21:50;17.30;99.90
15872;DHT22;8035;51.962;7.162;2023-08-06T07:24:15;17.40;99.90
15872;DHT22;8035;51.962;7.162;2023-08-06T07:26:41;17.40;99.90
15872;DHT22;8035;51.962;7.162;2023-08-06T07:29:07;17.40;99.90
15872;DHT22;8035;51.962;7.162;2023-08-06T07:31:32;17.50;99.90
15872;DHT22;8035;51.962;7.162;2023-08-06T07:33:58;17.50;99.90
15872;DHT22;8035;51.962;7.162;2023-08-06T07:36:24;17.40;99.90
15872;DHT22;8035;51.962;7.162;2023-08-06T07:38:50;17.40;99.90
15872;DHT22;8035;51.962;7.162;2023-08-06T07:41:21;17.30;99.90
15872;DHT22;8035;51.962;7.162;2023-08-06T07:43:46;17.20;99.90
15872;DHT22;8035;51.962;7.162;2023-08-06T07:46:12;17.20;99.90
15872;DHT22;8035;51.962;7.162;2023-08-06T07:48:38;17.10;99.90
15872;DHT22;8035;51.962;7.162;2023-08-06T07:51:04;17.10;99.90
15872;DHT22;8035;51.962;7.162;2023-08-06T07:53:29;17.10;99.90
15872;DHT22;8035;51.962;7.162;2023-08-06T07:55:56;17.10;99.90
15872;DHT22;8035;51.962;7.162;2023-08-06T07:58:24;17.10;99.90
15872;DHT22;8035;51.962;7.162;2023-08-06T08:00:50;17.10;99.90
15872;DHT22;8035;51.962;7.162;2023-08-06T08:03:16;17.20;99.90
15872;DHT22;8035;51.962;7.162;2023-08-06T08:05:43;17.30;99.90
15872;DHT22;8035;51.962;7.162;2023-08-06T08:08:09;17.30;99.90
15872;DHT22;8035;51.962;7.162;2023-08-06T08:10:35;17.40;99.90
15872;DHT22;8035;51.962;7.162;2023-08-06T08:13:02;17.40;99.90
15872;DHT22;8035;51.962;7.162;2023-08-06T08:15:29;17.50;99.90
15872;DHT22;8035;51.962;7.162;2023-08-06T08:17:55;17.60;99.90
15872;DHT22;8035;51.962;7.162;2023-08-06T08:20:20;17.70;99.90
15872;DHT22;8035;51.962;7.162;2023-08-06T08:22:46;17.80;99.90
15872;DHT22;8035;51.962;7.162;2023-08-06T08:25:12;17.80;99.90
15872;DHT22;8035;51.962;7.162;2023-08-06T08:27:38;17.90;99.90
15872;DHT22;8035;51.962;7.162;2023-08-06T08:30:04;17.90;99.90
15872;DHT22;8035;51.962;7.162;2023-08-06T08:32:30;18.00;99.90
15872;DHT22;8035;51.962;7.162;2023-08-06T08:34:55;18.00;99.90
15872;DHT22;8035;51.962;7.162;2023-08-06T08:37:21;18.00;99.90
15872;DHT22;8035;51.962;7.162;2023-08-06T08:39:46;18.00;99.90
15872;DHT22;8035;51.962;7.162;2023-08-06T08:42:12;18.00;99.90
15872;DHT22;8035;51.962;7.162;2023-08-06T08:44:39;18.10;99.90
15872;DHT22;8035;51.962;7.162;2023-08-06T08:47:06;18.10;99.90
15872;DHT22;8035;51.962;7.162;2023-08-06T08:49:32;18.10;99.90
15872;DHT22;8035;51.962;7.162;2023-08-06T08:51:59;18.10;99.90
15872;DHT22;8035;51.962;7.162;2023-08-06T08:54:27;18.20;99.90
15872;DHT22;8035;51.962;7.162;2023-08-06T08:56:54;18.30;99.90
15872;DHT22;8035;51.962;7.162;2023-08-06T08:59:20;18.30;99.90
15872;DHT22;8035;51.962;7.162;2023-08-06T09:01:48;18.40;99.90
15872;DHT22;8035;51.962;7.162;2023-08-06T09:04:17;18.40;99.90
15872;DHT22;8035;51.962;7.162;2023-08-06T09:06:46;18.50;99.90
15872;DHT22;8035;51.962;7.162;2023-08-06T09:09:25;18.60;99.90
15872;DHT22;8035;51.962;7.162;2023-08-06T09:11:52;18.60;99.90
15872;DHT22;8035;51.962;7.162;2023-08-06T09:14:18;18.60;99.90
15872;DHT22;8035;51.962;7.162;2023-08-06T09:16:43;18.60;99.90
15872;DHT22;8035;51.962;7.162;2023-08-06T09:19:13;18.50;99.90
15872;DHT22;8035;51.962;7.162;2023-08-06T09:21:41;18.40;99.90
15872;DHT22;8035;51.962;7.162;2023-08-06T09:24:10;18.40;99.90
15872;DHT22;8035;51.962;7.162;2023-08-06T09:26:40;18.40;99.90
15872;DHT22;8035;51.962;7.162;2023-08-06T09:29:07;18.40;99.90
15872;DHT22;8035;51.962;7.162;2023-08-06T09:31:43;18.50;99.90
15872;DHT22;8035;51.962;7.162;2023-08-06T09:34:17;18.50;99.90
15872;DHT22;8035;51.962;7.162;2023-08-06T09:36:47;18.60;99.90
15872;DHT22;8035;51.962;7.162;2023-08-06T09:39:14;18.70;99.90
15872;DHT22;8035;51.962;7.162;2023-08-06T09:41:41;18.70;99.90
15872;DHT22;8035;51.962;7.162;2023-08-06T09:44:18;18.80;99.90
15872;DHT22;8035;51.962;7.162;2023-08-06T09:46:52;18.90;99.90
15872;DHT22;8035;51.962;7.162;2023-08-06T09:49:19;19.00;99.90
15872;DHT22;8035;51.962;7.162;2023-08-06T09:51:46;19.10;99.90
15872;DHT22;8035;51.962;7.162;2023-08-06T09:54:12;19.20;99.90
15872;DHT22;8035;51.962;7.162;2023-08-06T09:56:39;19.30;99.90
15872;DHT22;8035;51.962;7.162;2023-08-06T09:59:05;19.50;99.90
15872;DHT22;8035;51.962;7.162;2023-08-06T10:01:35;19.60;99.90
15872;DHT22;8035;51.962;7.162;2023-08-06T10:04:03;19.90;99.90
15872;DHT22;8035;51.962;7.162;2023-08-06T10:06:29;20.00;99.90
15872;DHT22;8035;51.962;7.162;2023-08-06T10:08:56;20.20;99.90
15872;DHT22;8035;51.962;7.162;2023-08-06T10:11:24;20.30;99.90
15872;DHT22;8035;51.962;7.162;2023-08-06T10:13:53;20.40;99.90
15872;DHT22;8035;51.962;7.162;2023-08-06T10:16:20;20.50;99.90
15872;DHT22;8035;51.962;7.162;2023-08-06T10:18:47;20.50;99.90
15872;DHT22;8035;51.962;7.162;2023-08-06T10:21:13;20.60;99.90
15872;DHT22;8035;51.962;7.162;2023-08-06T10:23:40;20.70;99.90
15872;DHT22;8035;51.962;7.162;2023-08-06T10:26:07;20.80;99.90
15872;DHT22;8035;51.962;7.162;2023-08-06T10:28:39;20.70;99.90
15872;DHT22;8035;51.962;7.162;2023-08-06T10:31:05;20.80;99.90
15872;DHT22;8035;51.962;7.162;2023-08-06T10:33:47;20.80;99.90
15872;DHT22;8035;51.962;7.162;2023-08-06T10:36:15;20.90;99.90
15872;DHT22;8035;51.962;7.162;2023-08-06T10:38:48;20.90;99.90
15872;DHT22;8035;51.962;7.162;2023-08-06T10:41:23;21.00;99.90
15872;DHT22;8035;51.962;7.162;2023-08-06T10:43:49;21.20;99.90
15872;DHT22;8035;51.962;7.162;2023-08-06T10:46:27;21.30;99.90
15872;DHT22;8035;51.962;7.162;2023-08-06T10:48:53;21.50;99.90
15872;DHT22;8035;51.962;7.162;2023-08-06T10:51:19;21.70;99.90
15872;DHT22;8035;51.962;7.162;2023-08-06T10:53:47;21.80;99.90
15872;DHT22;8035;51.962;7.162;2023-08-06T10:56:17;21.80;99.90
15872;DHT22;8035;51.962;7.162;2023-08-06T10:58:46;21.90;99.90
15872;DHT22;8035;51.962;7.162;2023-08-06T11:01:12;21.90;99.90
15872;DHT22;8035;51.962;7.162;2023-08-06T11:03:38;22.00;99.90
15872;DHT22;8035;51.962;7.162;2023-08-06T11:06:07;22.10;99.90
15872;DHT22;8035;51.962;7.162;2023-08-06T11:08:48;22.00;99.90
15872;DHT22;8035;51.962;7.162;2023-08-06T11:11:15;22.00;99.90
15872;DHT22;8035;51.962;7.162;2023-08-06T11:13:43;21.90;99.90
15872;DHT22;8035;51.962;7.162;2023-08-06T11:16:11;21.80;99.90
15872;DHT22;8035;51.962;7.162;2023-08-06T11:18:37;21.70;99.90
15872;DHT22;8035;51.962;7.162;2023-08-06T11:21:03;21.30;99.90
15872;DHT22;8035;51.962;7.162;2023-08-06T11:23:29;21.00;99.90
15872;DHT22;8035;51.962;7.162;2023-08-06T11:25:56;20.70;99.90
15872;DHT22;8035;51.962;7.162;2023-08-06T11:28:22;20.40;99.90
15872;DHT22;8035;51.962;7.162;2023-08-06T11:30:48;20.00;99.90
15872;DHT22;8035;51.962;7.162;2023-08-06T11:33:14;19.60;99.90
15872;DHT22;8035;51.962;7.162;2023-08-06T11:35:40;19.40;99.90
15872;DHT22;8035;51.962;7.162;2023-08-06T11:38:06;19.00;99.90
15872;DHT22;8035;51.962;7.162;2023-08-06T11:40:33;18.70;99.90
15872;DHT22;8035;51.962;7.162;2023-08-06T11:43:00;18.60;99.90
15872;DHT22;8035;51.962;7.162;2023-08-06T11:45:26;18.50;99.90
15872;DHT22;8035;51.962;7.162;2023-08-06T11:47:52;18.50;99.90
15872;DHT22;8035;51.962;7.162;2023-08-06T11:50:25;18.50;99.90
15872;DHT22;8035;51.962;7.162;2023-08-06T11:52:58;18.60;99.90
15872;DHT22;8035;51.962;7.162;2023-08-06T11:55:25;18.70;99.90
15872;DHT22;8035;51.962;7.162;2023-08-06T11:57:51;18.70;99.90
15872;DHT22;8035;51.962;7.162;2023-08-06T12:00:17;18.80;99.90
15872;DHT22;8035;51.962;7.162;2023-08-06T12:02:46;18.90;99.90
15872;DHT22;8035;51.962;7.162;2023-08-06T12:05:15;19.00;99.90
15872;DHT22;8035;51.962;7.162;2023-08-06T12:07:44;19.10;99.90
15872;DHT22;8035;51.962;7.162;2023-08-06T12:10:10;19.20;99.90
15872;DHT22;8035;51.962;7.162;2023-08-06T12:12:36;19.30;99.90
15872;DHT22;8035;51.962;7.162;2023-08-06T12:15:03;19.40;99.90
15872;DHT22;8035;51.962;7.162;2023-08-06T12:17:29;19.50;99.90
15872;DHT22;8035;51.962;7.162;2023-08-06T12:19:55;19.60;99.90
15872;DHT22;8035;51.962;7.162;2023-08-06T12:22:21;19.60;99.90
15872;DHT22;8035;51.962;7.162;2023-08-06T12:24:47;19.80;99.90
15872;DHT22;8035;51.962;7.162;2023-08-06T12:27:13;20.00;99.90
15872;DHT22;8035;51.962;7.162;2023-08-06T12:29:42;20.20;99.90
15872;DHT22;8035;51.962;7.162;2023-08-06T12:32:09;20.40;99.90
15872;DHT22;8035;51.962;7.162;2023-08-06T12:34:34;20.50;99.90
15872;DHT22;8035;51.962;7.162;2023-08-06T12:37:00;20.60;99.90
15872;DHT22;8035;51.962;7.162;2023-08-06T12:39:25;20.70;99.90
15872;DHT22;8035;51.962;7.162;2023-08-06T12:41:54;20.90;99.90
15872;DHT22;8035;51.962;7.162;2023-08-06T12:44:20;21.00;99.90
15872;DHT22;8035;51.962;7.162;2023-08-06T12:46:46;21.10;99.90
15872;DHT22;8035;51.962;7.162;2023-08-06T12:49:11;20.90;99.90
15872;DHT22;8035;51.962;7.162;2023-08-06T12:51:37;20.80;99.90
15872;DHT22;8035;51.962;7.162;2023-08-06T12:54:02;20.60;99.90
15872;DHT22;8035;51.962;7.162;2023-08-06T12:56:28;20.70;99.90
15872;DHT22;8035;51.962;7.162;2023-08-06T12:58:54;20.80;99.90
15872;DHT22;8035;51.962;7.162;2023-08-06T13:01:19;21.30;99.90
15872;DHT22;8035;51.962;7.162;2023-08-06T13:03:45;21.80;99.90
15872;DHT22;8035;51.962;7.162;2023-08-06T13:06:11;21.70;99.90
15872;DHT22;8035;51.962;7.162;2023-08-06T13:08:37;21.50;99.90
15872;DHT22;8035;51.962;7.162;2023-08-06T13:11:03;21.10;99.90
15872;DHT22;8035;51.962;7.162;2023-08-06T13:13:29;20.70;99.90
15872;DHT22;8035;51.962;7.162;2023-08-06T13:15:54;20.20;99.90
15872;DHT22;8035;51.962;7.162;2023-08-06T13:18:20;19.80;99.90
15872;DHT22;8035;51.962;7.162;2023-08-06T13:20:45;19.50;99.90
15872;DHT22;8035;51.962;7.162;2023-08-06T13:23:12;19.20;99.90
15872;DHT22;8035;51.962;7.162;2023-08-06T13:25:40;19.00;99.90
15872;DHT22;8035;51.962;7.162;2023-08-06T13:28:06;18.80;99.90
15872;DHT22;8035;51.962;7.162;2023-08-06T13:30:32;18.70;99.90
15872;DHT22;8035;51.962;7.162;2023-08-06T13:32:57;18.40;99.90
15872;DHT22;8035;51.962;7.162;2023-08-06T13:35:23;18.30;99.90
15872;DHT22;8035;51.962;7.162;2023-08-06T13:37:49;18.20;99.90
15872;DHT22;8035;51.962;7.162;2023-08-06T13:40:15;18.00;99.90
15872;DHT22;8035;51.962;7.162;2023-08-06T13:42:41;17.80;99.90
15872;DHT22;8035;51.962;7.162;2023-08-06T13:45:07;17.70;99.90
15872;DHT22;8035;51.962;7.162;2023-08-06T13:47:33;17.40;99.90
15872;DHT22;8035;51.962;7.162;2023-08-06T13:49:58;17.20;99.90
15872;DHT22;8035;51.962;7.162;2023-08-06T13:52:25;17.10;99.90
15872;DHT22;8035;51.962;7.162;2023-08-06T13:54:52;17.00;99.90
15872;DHT22;8035;51.962;7.162;2023-08-06T13:57:17;16.90;99.90
15872;DHT22;8035;51.962;7.162;2023-08-06T13:59:43;16.90;99.90
15872;DHT22;8035;51.962;7.162;2023-08-06T14:02:09;16.80;99.90
15872;DHT22;8035;51.962;7.162;2023-08-06T14:04:35;16.80;99.90
15872;DHT22;8035;51.962;7.162;2023-08-06T14:07:03;16.70;99.90
15872;DHT22;8035;51.962;7.162;2023-08-06T14:09:29;16.70;99.90
15872;DHT22;8035;51.962;7.162;2023-08-06T14:11:54;16.80;99.90
15872;DHT22;8035;51.962;7.162;2023-08-06T14:14:20;16.70;99.90
15872;DHT22;8035;51.962;7.162;2023-08-06T14:16:51;16.70;99.90
15872;DHT22;8035;51.962;7.162;2023-08-06T14:19:17;16.70;99.90
15872;DHT22;8035;51.962;7.162;2023-08-06T14:21:42;16.70;99.90
15872;DHT22;8035;51.962;7.162;2023-08-06T14:24:08;16.70;99.90
15872;DHT22;8035;51.962;7.162;2023-08-06T14:26:34;16.70;99.90
15872;DHT22;8035;51.962;7.162;2023-08-06T14:29:01;16.70;99.90
15872;DHT22;8035;51.962;7.162;2023-08-06T14:31:26;16.80;99.90
15872;DHT22;8035;51.962;7.162;2023-08-06T14:33:52;17.00;99.90
15872;DHT22;8035;51.962;7.162;2023-08-06T14:36:18;17.10;99.90
15872;DHT22;8035;51.962;7.162;2023-08-06T14:38:44;17.30;99.90
15872;DHT22;8035;51.962;7.162;2023-08-06T14:41:09;17.50;99.90
15872;DHT22;8035;51.962;7.162;2023-08-06T14:43:35;17.70;99.90
15872;DHT22;8035;51.962;7.162;2023-08-06T14:46:01;17.80;99.90
15872;DHT22;8035;51.962;7.162;2023-08-06T14:48:26;17.90;99.90
15872;DHT22;8035;51.962;7.162;2023-08-06T14:50:52;17.80;99.90
15872;DHT22;8035;51.962;7.162;2023-08-06T14:53:17;17.70;99.90
15872;DHT22;8035;51.962;7.162;2023-08-06T14:55:43;17.60;99.90
15872;DHT22;8035;51.962;7.162;2023-08-06T14:58:08;17.50;99.90
15872;DHT22;8035;51.962;7.162;2023-08-06T15:00:34;17.40;99.90
15872;DHT22;8035;51.962;7.162;2023-08-06T15:03:01;17.30;99.90
15872;DHT22;8035;51.962;7.162;2023-08-06T15:05:26;17.40;99.90
15872;DHT22;8035;51.962;7.162;2023-08-06T15:07:52;17.40;99.90
15872;DHT22;8035;51.962;7.162;2023-08-06T15:10:18;17.20;99.90
15872;DHT22;8035;51.962;7.162;2023-08-06T15:12:44;17.00;99.90
15872;DHT22;8035;51.962;7.162;2023-08-06T15:15:10;16.90;99.90
15872;DHT22;8035;51.962;7.162;2023-08-06T15:17:36;16.70;99.90
15872;DHT22;8035;51.962;7.162;2023-08-06T15:20:02;16.60;99.90
15872;DHT22;8035;51.962;7.162;2023-08-06T15:22:28;16.60;99.90
15872;DHT22;8035;51.962;7.162;2023-08-06T15:24:57;16.40;99.90
15872;DHT22;8035;51.962;7.162;2023-08-06T15:27:23;16.40;99.90
15872;DHT22;8035;51.962;7.162;2023-08-06T15:29:49;16.30;99.90
15872;DHT22;8035;51.962;7.162;2023-08-06T15:32:14;16.30;99.90
15872;DHT22;8035;51.962;7.162;2023-08-06T15:34:40;16.20;99.90
15872;DHT22;8035;51.962;7.162;2023-08-06T15:37:06;16.20;99.90
15872;DHT22;8035;51.962;7.162;2023-08-06T15:39:32;16.20;99.90
15872;DHT22;8035;51.962;7.162;2023-08-06T15:41:58;16.30;99.90
15872;DHT22;8035;51.962;7.162;2023-08-06T15:44:24;16.20;99.90
15872;DHT22;8035;51.962;7.162;2023-08-06T15:46:50;16.30;99.90
15872;DHT22;8035;51.962;7.162;2023-08-06T15:49:16;16.40;99.90